createdAt,value
2018-12-31T00:02:09.885Z,12.43
2018-12-31T00:04:41.258Z,12.43
2018-12-31T00:07:12.505Z,12.62
2018-12-31T00:09:44.692Z,12.51
2018-12-31T00:12:16.081Z,12.57
2018-12-31T00:14:47.478Z,12.44
2018-12-31T00:17:19.143Z,12.45
2018-12-31T00:19:50.846Z,12.42
2018-12-31T00:22:22.309Z,12.42
2018-12-31T00:24:53.509Z,12.43
2018-12-31T00:27:25.258Z,12.46
2018-12-31T00:29:56.628Z,12.47
2018-12-31T00:32:28.179Z,12.46
2018-12-31T00:34:59.477Z,12.46
2018-12-31T00:37:31.000Z,12.49
2018-12-31T00:40:03.156Z,12.55
2018-12-31T00:42:34.647Z,12.56
2018-12-31T00:45:06.696Z,12.57
2018-12-31T00:47:38.196Z,12.60
2018-12-31T00:50:09.445Z,12.60
2018-12-31T00:52:40.839Z,12.44
2018-12-31T00:55:12.290Z,12.41
2018-12-31T00:57:43.531Z,12.45
2018-12-31T01:00:14.781Z,12.55
2018-12-31T01:02:46.307Z,12.55
2018-12-31T01:05:17.475Z,12.50
2018-12-31T01:07:49.281Z,12.49
2018-12-31T01:10:21.499Z,12.49
2018-12-31T01:12:52.826Z,12.50
2018-12-31T01:15:24.360Z,12.50
2018-12-31T01:17:55.878Z,12.54
2018-12-31T01:20:27.391Z,12.54
2018-12-31T01:22:59.023Z,12.31
2018-12-31T01:25:30.273Z,12.31
2018-12-31T01:28:01.913Z,12.31
2018-12-31T01:30:33.219Z,12.43
2018-12-31T01:33:04.432Z,12.42
2018-12-31T01:35:35.892Z,12.37
2018-12-31T01:38:07.184Z,12.30
2018-12-31T01:40:39.372Z,12.30
2018-12-31T01:43:10.693Z,12.30
2018-12-31T01:45:42.306Z,12.30
2018-12-31T01:48:13.529Z,12.27
2018-12-31T01:50:44.795Z,12.27
2018-12-31T01:53:16.370Z,12.33
2018-12-31T01:55:47.702Z,12.33
2018-12-31T01:58:19.176Z,12.41
2018-12-31T02:00:50.379Z,12.41
2018-12-31T02:03:21.631Z,12.41
2018-12-31T02:05:53.131Z,12.39
2018-12-31T02:08:24.669Z,12.39
2018-12-31T02:10:56.678Z,12.34
2018-12-31T02:13:28.012Z,12.34
2018-12-31T02:15:59.142Z,12.37
2018-12-31T02:18:30.592Z,12.40
2018-12-31T02:21:01.951Z,12.44
2018-12-31T02:23:33.247Z,12.48
2018-12-31T02:26:04.431Z,12.54
2018-12-31T02:28:35.883Z,12.54
2018-12-31T02:31:07.673Z,12.50
2018-12-31T02:33:39.099Z,12.63
2018-12-31T02:36:10.772Z,12.58
2018-12-31T02:38:42.121Z,12.73
2018-12-31T02:41:13.986Z,12.73
2018-12-31T02:43:45.498Z,14.22
2018-12-31T02:46:16.995Z,14.22
2018-12-31T02:48:48.175Z,14.37
2018-12-31T02:51:19.814Z,14.51
2018-12-31T02:53:51.020Z,14.55
2018-12-31T02:56:22.486Z,14.50
2018-12-31T02:58:53.690Z,14.37
2018-12-31T03:01:25.241Z,14.43
2018-12-31T03:03:56.763Z,14.43
2018-12-31T03:06:28.088Z,14.63
2018-12-31T03:08:59.290Z,14.63
2018-12-31T03:11:30.991Z,14.72
2018-12-31T03:14:02.199Z,14.71
2018-12-31T03:16:33.482Z,14.71
2018-12-31T03:19:04.719Z,14.75
2018-12-31T03:21:35.966Z,14.79
2018-12-31T03:24:07.192Z,14.79
2018-12-31T03:26:38.435Z,14.79
2018-12-31T03:29:10.092Z,14.79
2018-12-31T03:31:41.132Z,14.71
2018-12-31T03:34:12.390Z,14.78
2018-12-31T03:36:45.047Z,14.78
2018-12-31T03:39:16.574Z,14.77
2018-12-31T03:41:48.265Z,14.77
2018-12-31T03:44:19.541Z,14.85
2018-12-31T03:46:50.863Z,14.89
2018-12-31T03:49:22.107Z,14.89
2018-12-31T03:51:53.642Z,14.90
2018-12-31T03:54:25.048Z,14.91
2018-12-31T03:56:56.255Z,14.91
2018-12-31T03:59:27.697Z,14.91
2018-12-31T04:01:59.169Z,14.91
2018-12-31T04:04:30.781Z,14.98
2018-12-31T04:07:02.539Z,14.98
2018-12-31T04:09:34.999Z,15.05
2018-12-31T04:12:07.173Z,15.05
2018-12-31T04:14:38.711Z,15.03
2018-12-31T04:17:09.979Z,15.03
2018-12-31T04:19:41.344Z,15.09
2018-12-31T04:22:13.080Z,15.06
2018-12-31T04:24:44.652Z,15.10
2018-12-31T04:27:16.079Z,15.10
2018-12-31T04:29:47.759Z,15.15
2018-12-31T04:32:19.112Z,15.26
2018-12-31T04:34:50.455Z,15.24
2018-12-31T04:37:21.781Z,15.24
2018-12-31T04:39:53.323Z,15.14
2018-12-31T04:42:24.998Z,15.05
2018-12-31T04:44:56.287Z,15.30
2018-12-31T04:47:27.763Z,15.30
2018-12-31T04:49:59.328Z,15.10
2018-12-31T04:52:30.579Z,15.27
2018-12-31T04:55:02.186Z,15.32
2018-12-31T04:57:33.483Z,15.32
2018-12-31T05:00:05.285Z,15.37
2018-12-31T05:02:36.900Z,15.39
2018-12-31T05:05:08.271Z,15.45
2018-12-31T05:07:39.442Z,15.45
2018-12-31T05:10:11.259Z,15.45
2018-12-31T05:12:43.089Z,15.56
2018-12-31T05:15:14.857Z,15.47
2018-12-31T05:17:46.614Z,15.54
2018-12-31T05:20:19.039Z,15.54
2018-12-31T05:22:50.584Z,15.59
2018-12-31T05:25:21.947Z,15.58
2018-12-31T05:27:53.273Z,15.55
2018-12-31T05:30:25.224Z,15.47
2018-12-31T05:32:56.656Z,15.68
2018-12-31T05:35:28.206Z,15.71
2018-12-31T05:37:59.920Z,15.71
2018-12-31T05:40:31.567Z,15.73
2018-12-31T05:43:03.388Z,15.75
2018-12-31T05:45:35.052Z,15.78
2018-12-31T05:48:06.700Z,15.78
2018-12-31T05:50:38.270Z,16.07
2018-12-31T05:53:10.027Z,16.20
2018-12-31T05:55:41.675Z,16.20
2018-12-31T05:58:12.999Z,16.15
2018-12-31T06:00:44.655Z,16.38
2018-12-31T06:03:16.203Z,16.16
2018-12-31T06:05:47.951Z,16.16
2018-12-31T06:08:19.477Z,16.14
2018-12-31T06:10:51.009Z,16.25
2018-12-31T06:13:22.995Z,16.22
2018-12-31T06:15:55.048Z,16.18
2018-12-31T06:18:26.752Z,16.44
2018-12-31T06:20:58.973Z,16.47
2018-12-31T06:23:30.385Z,16.36
2018-12-31T06:26:02.046Z,16.45
2018-12-31T06:28:33.542Z,16.57
2018-12-31T06:31:05.152Z,16.57
2018-12-31T06:33:36.663Z,16.57
2018-12-31T06:36:08.040Z,16.70
2018-12-31T06:38:39.725Z,16.44
2018-12-31T06:41:11.212Z,16.49
2018-12-31T06:43:43.266Z,16.48
2018-12-31T06:46:14.663Z,16.77
2018-12-31T06:48:46.699Z,16.77
2018-12-31T06:51:18.323Z,16.53
2018-12-31T06:53:49.893Z,17.00
2018-12-31T06:56:21.663Z,17.05
2018-12-31T06:58:53.218Z,16.92
2018-12-31T07:01:24.443Z,16.92
2018-12-31T07:03:56.095Z,16.88
2018-12-31T07:06:27.845Z,16.88
2018-12-31T07:08:59.355Z,16.92
2018-12-31T07:11:31.223Z,17.08
2018-12-31T07:14:03.323Z,17.08
2018-12-31T07:16:34.675Z,16.95
2018-12-31T07:19:06.050Z,17.20
2018-12-31T07:21:37.337Z,17.20
2018-12-31T07:24:08.940Z,16.90
2018-12-31T07:26:40.497Z,16.90
2018-12-31T07:29:11.828Z,17.27
2018-12-31T07:31:44.355Z,17.18
2018-12-31T07:34:15.551Z,17.18
2018-12-31T07:36:46.843Z,17.08
2018-12-31T07:39:18.366Z,17.08
2018-12-31T07:41:49.744Z,17.58
2018-12-31T07:44:21.689Z,17.58
2018-12-31T07:46:53.414Z,17.30
2018-12-31T07:49:25.246Z,17.30
2018-12-31T07:51:56.605Z,17.26
2018-12-31T07:54:28.132Z,17.84
2018-12-31T07:57:00.348Z,18.02
2018-12-31T07:59:31.573Z,18.02
2018-12-31T08:02:02.917Z,17.76
2018-12-31T08:04:34.345Z,17.76
2018-12-31T08:07:05.653Z,18.17
2018-12-31T08:09:37.013Z,17.94
2018-12-31T08:12:08.477Z,17.29
2018-12-31T08:14:40.364Z,17.51
2018-12-31T08:17:11.753Z,17.51
2018-12-31T08:19:43.332Z,17.45
2018-12-31T08:22:15.077Z,18.05
2018-12-31T08:24:46.863Z,17.83
2018-12-31T08:27:18.125Z,17.83
2018-12-31T08:29:49.572Z,17.66
2018-12-31T08:32:21.703Z,17.70
2018-12-31T08:34:53.626Z,17.53
2018-12-31T08:37:25.683Z,17.55
2018-12-31T08:39:58.036Z,17.58
2018-12-31T08:42:29.679Z,17.55
2018-12-31T08:45:01.518Z,17.67
2018-12-31T08:47:33.117Z,17.55
2018-12-31T08:50:04.674Z,17.62
2018-12-31T08:52:36.105Z,17.62
2018-12-31T08:55:07.832Z,17.60
2018-12-31T08:57:39.659Z,17.85
2018-12-31T09:00:11.446Z,17.85
2018-12-31T09:02:42.665Z,17.95
2018-12-31T09:05:14.367Z,17.92
2018-12-31T09:07:46.862Z,17.86
2018-12-31T09:10:18.167Z,17.74
2018-12-31T09:12:49.114Z,17.67
2018-12-31T09:15:21.010Z,17.63
2018-12-31T09:17:52.173Z,17.93
2018-12-31T09:20:24.185Z,17.87
2018-12-31T09:22:55.372Z,17.73
2018-12-31T09:25:26.678Z,18.05
2018-12-31T09:27:58.026Z,17.67
2018-12-31T09:30:29.797Z,17.67
2018-12-31T09:33:01.281Z,18.05
2018-12-31T09:35:32.709Z,18.05
2018-12-31T09:38:04.005Z,17.75
2018-12-31T09:40:35.351Z,17.83
2018-12-31T09:43:06.488Z,17.83
2018-12-31T09:45:38.535Z,18.04
2018-12-31T09:48:09.712Z,17.94
2018-12-31T09:50:41.611Z,17.94
2018-12-31T09:53:12.868Z,17.85
2018-12-31T09:55:44.322Z,17.84
2018-12-31T09:58:15.741Z,17.92
2018-12-31T10:00:47.200Z,17.96
2018-12-31T10:03:18.328Z,17.96
2018-12-31T10:05:49.536Z,17.87
2018-12-31T10:08:20.777Z,18.02
2018-12-31T10:10:52.242Z,18.02
2018-12-31T10:13:23.442Z,17.78
2018-12-31T10:15:57.710Z,17.78
2018-12-31T10:18:29.032Z,17.94
2018-12-31T10:21:00.859Z,18.00
2018-12-31T10:23:32.093Z,18.03
2018-12-31T10:26:03.393Z,18.03
2018-12-31T10:28:34.650Z,17.96
2018-12-31T10:31:06.483Z,17.84
2018-12-31T10:33:38.335Z,17.89
2018-12-31T10:36:10.809Z,17.88
2018-12-31T10:38:42.881Z,17.95
2018-12-31T10:41:14.269Z,17.95
2018-12-31T10:43:45.413Z,17.84
2018-12-31T10:46:17.322Z,17.94
2018-12-31T10:48:48.912Z,17.94
2018-12-31T10:51:20.337Z,17.91
2018-12-31T10:53:51.936Z,17.97
2018-12-31T10:56:23.804Z,17.89
2018-12-31T10:58:55.460Z,17.89
2018-12-31T11:01:28.371Z,17.88
2018-12-31T11:03:59.451Z,17.85
2018-12-31T11:06:31.122Z,17.85
2018-12-31T11:09:02.324Z,17.92
2018-12-31T11:11:34.338Z,17.92
2018-12-31T11:14:05.398Z,17.91
2018-12-31T11:16:37.554Z,17.84
2018-12-31T11:19:08.990Z,17.90
2018-12-31T11:21:40.755Z,17.90
2018-12-31T11:24:12.816Z,17.83
2018-12-31T11:26:44.468Z,17.87
2018-12-31T11:29:15.934Z,17.83
2018-12-31T11:31:47.248Z,17.88
2018-12-31T11:34:19.178Z,17.89
2018-12-31T11:36:50.877Z,17.88
2018-12-31T11:39:22.298Z,17.86
2018-12-31T11:41:53.790Z,17.86
2018-12-31T11:44:25.083Z,17.89
2018-12-31T11:46:57.345Z,17.88
2018-12-31T11:49:28.536Z,17.92
2018-12-31T11:52:00.060Z,17.91
2018-12-31T11:54:31.519Z,17.88
2018-12-31T11:57:03.236Z,17.87
2018-12-31T11:59:34.392Z,17.86
2018-12-31T12:02:06.165Z,17.86
2018-12-31T12:04:37.367Z,17.87
2018-12-31T12:07:08.728Z,17.83
2018-12-31T12:09:39.988Z,17.81
2018-12-31T12:12:11.398Z,17.81
2018-12-31T12:14:42.953Z,17.82
2018-12-31T12:17:15.005Z,17.81
2018-12-31T12:19:46.181Z,17.83
2018-12-31T12:22:17.590Z,17.81
2018-12-31T12:24:49.554Z,17.81
2018-12-31T12:27:21.314Z,17.80
2018-12-31T12:29:52.345Z,17.77
2018-12-31T12:32:23.631Z,17.75
2018-12-31T12:34:55.861Z,17.75
2018-12-31T12:37:27.436Z,17.75
2018-12-31T12:39:58.892Z,17.71
2018-12-31T12:42:30.523Z,17.78
2018-12-31T12:45:02.019Z,17.78
2018-12-31T12:47:34.262Z,17.74
2018-12-31T12:50:05.877Z,17.71
2018-12-31T12:52:37.293Z,17.64
2018-12-31T12:55:08.535Z,17.65
2018-12-31T12:57:39.922Z,17.65
2018-12-31T13:00:11.390Z,17.66
2018-12-31T13:02:43.147Z,17.65
2018-12-31T13:05:14.311Z,17.61
2018-12-31T13:07:46.973Z,17.45
2018-12-31T13:10:18.613Z,17.51
2018-12-31T13:12:51.260Z,17.51
2018-12-31T13:15:22.434Z,17.52
2018-12-31T13:17:54.608Z,17.50
2018-12-31T13:20:25.934Z,17.50
2018-12-31T13:22:57.721Z,17.51
2018-12-31T13:25:28.972Z,17.47
2018-12-31T13:28:00.436Z,17.47
2018-12-31T13:30:33.287Z,17.45
2018-12-31T13:33:05.148Z,17.44
2018-12-31T13:35:36.671Z,17.44
2018-12-31T13:38:08.354Z,17.45
2018-12-31T13:40:39.759Z,17.41
2018-12-31T13:43:11.525Z,17.41
2018-12-31T13:45:43.003Z,17.32
2018-12-31T13:48:14.679Z,17.34
2018-12-31T13:50:46.191Z,17.50
2018-12-31T13:53:17.971Z,17.50
2018-12-31T13:55:49.223Z,17.63
2018-12-31T13:58:20.971Z,17.65
2018-12-31T14:00:52.147Z,17.66
2018-12-31T14:03:23.902Z,17.65
2018-12-31T14:05:55.049Z,17.65
2018-12-31T14:08:26.506Z,17.66
2018-12-31T14:10:57.698Z,17.66
2018-12-31T14:13:29.200Z,17.55
2018-12-31T14:16:00.928Z,17.55
2018-12-31T14:18:32.714Z,17.47
2018-12-31T14:21:03.955Z,17.47
2018-12-31T14:23:35.509Z,17.48
2018-12-31T14:26:07.119Z,17.48
2018-12-31T14:28:38.686Z,17.56
2018-12-31T14:31:10.041Z,16.93
2018-12-31T14:33:41.577Z,16.69
2018-12-31T14:36:13.044Z,16.63
2018-12-31T14:38:45.502Z,16.61
2018-12-31T14:41:17.616Z,16.49
2018-12-31T14:43:49.279Z,16.49
2018-12-31T14:46:20.401Z,16.45
2018-12-31T14:48:52.317Z,16.45
2018-12-31T14:51:24.218Z,16.45
2018-12-31T14:53:55.762Z,16.33
2018-12-31T14:56:27.140Z,16.32
2018-12-31T14:58:58.968Z,16.32
2018-12-31T15:01:31.729Z,16.30
2018-12-31T15:04:03.129Z,16.28
2018-12-31T15:06:34.377Z,16.28
2018-12-31T15:09:07.688Z,16.29
2018-12-31T15:11:45.406Z,16.29
2018-12-31T15:14:17.096Z,16.29
2018-12-31T15:16:49.151Z,16.26
2018-12-31T15:19:20.820Z,16.20
2018-12-31T15:21:52.228Z,16.20
2018-12-31T15:24:23.556Z,16.15
2018-12-31T15:26:54.950Z,16.13
2018-12-31T15:29:27.612Z,16.10
2018-12-31T15:31:59.090Z,16.09
2018-12-31T15:34:30.923Z,16.10
2018-12-31T15:37:02.555Z,16.10
2018-12-31T15:39:34.041Z,16.01
2018-12-31T15:42:05.673Z,16.04
2018-12-31T15:44:36.726Z,16.04
2018-12-31T15:47:08.228Z,16.00
2018-12-31T15:49:40.349Z,16.05
2018-12-31T15:52:11.790Z,16.08
2018-12-31T15:54:43.214Z,16.04
2018-12-31T15:57:14.755Z,16.04
2018-12-31T15:59:45.836Z,15.96
2018-12-31T16:02:17.083Z,15.96
2018-12-31T16:04:48.109Z,15.96
2018-12-31T16:07:19.552Z,15.88
2018-12-31T16:09:50.603Z,15.88
2018-12-31T16:12:22.079Z,15.80
2018-12-31T16:14:53.397Z,15.76
2018-12-31T16:17:24.822Z,15.73
2018-12-31T16:19:56.626Z,15.69
2018-12-31T16:22:28.009Z,15.69
2018-12-31T16:24:59.308Z,15.61
2018-12-31T16:27:30.835Z,15.55
2018-12-31T16:30:02.062Z,15.56
2018-12-31T16:32:33.440Z,15.55
2018-12-31T16:35:04.757Z,15.55
2018-12-31T16:37:36.370Z,15.54
2018-12-31T16:40:08.439Z,15.52
2018-12-31T16:42:40.709Z,15.48
2018-12-31T16:45:12.186Z,15.48
2018-12-31T16:47:43.780Z,15.55
2018-12-31T16:50:15.835Z,15.60
2018-12-31T16:52:47.083Z,15.60
2018-12-31T16:55:18.617Z,15.47
2018-12-31T16:57:54.132Z,15.47
2018-12-31T17:00:25.933Z,15.46
2018-12-31T17:02:59.442Z,15.48
2018-12-31T17:05:31.003Z,15.48
2018-12-31T17:08:02.410Z,15.48
2018-12-31T17:10:33.794Z,15.34
2018-12-31T17:13:05.135Z,15.26
2018-12-31T17:15:36.454Z,15.26
2018-12-31T17:18:07.868Z,15.17
2018-12-31T17:20:39.996Z,15.17
2018-12-31T17:23:11.443Z,15.19
2018-12-31T17:25:42.743Z,15.32
2018-12-31T17:28:14.017Z,15.33
2018-12-31T17:30:45.194Z,15.35
2018-12-31T17:33:17.298Z,15.32
2018-12-31T17:35:49.477Z,15.24
2018-12-31T17:38:22.507Z,15.24
2018-12-31T17:40:54.356Z,15.09
2018-12-31T17:43:26.113Z,15.09
2018-12-31T17:45:57.404Z,15.18
2018-12-31T17:48:28.895Z,15.14
2018-12-31T17:51:01.049Z,15.00
2018-12-31T17:53:33.030Z,15.00
2018-12-31T17:56:04.378Z,14.98
2018-12-31T17:58:35.674Z,14.99
2018-12-31T18:01:06.900Z,14.90
2018-12-31T18:03:38.400Z,14.92
2018-12-31T18:06:09.589Z,14.95
2018-12-31T18:08:40.887Z,14.95
2018-12-31T18:11:13.183Z,14.99
2018-12-31T18:13:44.801Z,14.99
2018-12-31T18:16:16.070Z,15.00
2018-12-31T18:18:47.631Z,14.90
2018-12-31T18:21:19.727Z,14.90
2018-12-31T18:23:50.987Z,14.80
2018-12-31T18:26:22.439Z,14.88
2018-12-31T18:28:53.827Z,14.92
2018-12-31T18:31:25.176Z,14.82
2018-12-31T18:33:56.705Z,14.89
2018-12-31T18:36:27.967Z,14.82
2018-12-31T18:38:59.403Z,14.82
2018-12-31T18:41:31.253Z,14.72
2018-12-31T18:44:02.579Z,14.71
2018-12-31T18:46:34.419Z,14.70
2018-12-31T18:49:05.815Z,14.61
2018-12-31T18:51:37.866Z,14.62
2018-12-31T18:54:09.080Z,14.62
2018-12-31T18:56:40.404Z,14.55
2018-12-31T18:59:12.079Z,14.55
2018-12-31T19:01:43.725Z,14.62
2018-12-31T19:04:15.583Z,14.62
2018-12-31T19:06:46.997Z,14.52
2018-12-31T19:09:18.391Z,14.61
2018-12-31T19:11:49.691Z,14.61
2018-12-31T19:14:21.486Z,14.56
2018-12-31T19:16:52.867Z,14.50
2018-12-31T19:19:25.269Z,14.44
2018-12-31T19:21:57.288Z,14.42
2018-12-31T19:24:29.140Z,14.36
2018-12-31T19:27:00.805Z,14.37
2018-12-31T19:29:32.488Z,14.38
2018-12-31T19:32:04.253Z,14.36
2018-12-31T19:34:35.772Z,14.32
2018-12-31T19:37:07.023Z,14.33
2018-12-31T19:39:38.288Z,14.32
2018-12-31T19:42:10.388Z,14.32
2018-12-31T19:44:41.601Z,14.37
2018-12-31T19:47:13.049Z,14.33
2018-12-31T19:49:44.246Z,14.28
2018-12-31T19:52:16.427Z,14.28
2018-12-31T19:54:47.918Z,14.25
2018-12-31T19:57:19.425Z,14.28
2018-12-31T19:59:50.680Z,14.30
2018-12-31T20:02:22.671Z,14.25
2018-12-31T20:04:54.185Z,14.23
2018-12-31T20:07:26.176Z,14.22
2018-12-31T20:09:57.759Z,14.19
2018-12-31T20:12:29.532Z,14.27
2018-12-31T20:15:01.110Z,14.21
2018-12-31T20:17:32.808Z,14.14
2018-12-31T20:20:04.412Z,14.14
2018-12-31T20:22:36.316Z,14.07
2018-12-31T20:25:07.725Z,14.01
2018-12-31T20:27:39.518Z,14.01
2018-12-31T20:30:10.967Z,14.11
2018-12-31T20:32:42.393Z,14.16
2018-12-31T20:35:13.668Z,14.12
2018-12-31T20:37:45.278Z,14.09
2018-12-31T20:40:16.783Z,14.09
2018-12-31T20:42:48.708Z,13.93
2018-12-31T20:45:20.251Z,13.81
2018-12-31T20:47:52.072Z,13.92
2018-12-31T20:50:23.582Z,13.92
2018-12-31T20:52:55.694Z,13.91
2018-12-31T20:55:27.073Z,13.91
2018-12-31T20:57:58.521Z,13.94
2018-12-31T21:00:29.768Z,13.88
2018-12-31T21:03:01.201Z,13.88
2018-12-31T21:05:32.454Z,13.80
2018-12-31T21:08:03.899Z,13.71
2018-12-31T21:10:35.729Z,13.88
2018-12-31T21:13:07.483Z,13.88
2018-12-31T21:15:38.845Z,13.89
2018-12-31T21:18:10.659Z,13.91
2018-12-31T21:20:42.107Z,13.94
2018-12-31T21:23:14.006Z,13.95
2018-12-31T21:25:45.292Z,13.95
2018-12-31T21:28:16.827Z,13.98
2018-12-31T21:30:47.987Z,13.93
2018-12-31T21:33:19.473Z,13.94
2018-12-31T21:35:50.938Z,13.90
2018-12-31T21:38:23.785Z,13.80
2018-12-31T21:40:55.341Z,13.90
2018-12-31T21:43:27.608Z,13.89
2018-12-31T21:45:58.945Z,13.89
2018-12-31T21:48:30.304Z,13.95
2018-12-31T21:51:01.616Z,13.91
2018-12-31T21:53:33.492Z,13.91
2018-12-31T21:56:05.324Z,13.84
2018-12-31T21:58:37.036Z,13.84
2018-12-31T22:01:08.703Z,13.85
2018-12-31T22:03:40.489Z,13.85
2018-12-31T22:06:12.141Z,13.84
2018-12-31T22:08:43.557Z,13.84
2018-12-31T22:11:14.900Z,13.78
2018-12-31T22:13:46.310Z,13.78
2018-12-31T22:16:18.215Z,13.62
2018-12-31T22:18:49.770Z,13.55
2018-12-31T22:21:21.073Z,13.55
2018-12-31T22:23:52.843Z,13.43
2018-12-31T22:26:24.178Z,13.23
2018-12-31T22:28:55.766Z,13.28
2018-12-31T22:31:26.920Z,13.28
2018-12-31T22:33:58.322Z,13.24
2018-12-31T22:36:29.761Z,13.28
2018-12-31T22:39:01.091Z,13.40
2018-12-31T22:41:33.956Z,13.38
2018-12-31T22:44:05.893Z,13.38
2018-12-31T22:46:37.489Z,13.37
2018-12-31T22:49:09.612Z,13.42
2018-12-31T22:51:41.226Z,13.42
2018-12-31T22:54:13.517Z,13.42
2018-12-31T22:56:45.075Z,13.34
2018-12-31T22:59:16.967Z,13.25
2018-12-31T23:01:48.329Z,13.23
2018-12-31T23:04:19.783Z,13.13
2018-12-31T23:06:52.324Z,13.08
2018-12-31T23:09:23.735Z,13.08
2018-12-31T23:11:55.167Z,13.04
2018-12-31T23:14:26.936Z,13.04
2018-12-31T23:17:02.719Z,13.01
2018-12-31T23:19:41.303Z,13.00
2018-12-31T23:22:07.372Z,12.82
2018-12-31T23:24:39.369Z,12.76
2018-12-31T23:27:11.678Z,12.80
2018-12-31T23:29:42.873Z,12.80
2018-12-31T23:32:14.208Z,12.85
2018-12-31T23:34:46.013Z,12.85
2018-12-31T23:37:17.479Z,12.83
2018-12-31T23:39:48.973Z,12.85
2018-12-31T23:42:20.639Z,12.85
2018-12-31T23:44:53.361Z,12.91
2018-12-31T23:47:24.625Z,12.86
2018-12-31T23:49:55.974Z,12.86
2018-12-31T23:52:27.646Z,13.01
2018-12-31T23:54:59.865Z,13.01
2018-12-31T23:57:32.509Z,12.84
